sensor_id;sensor_type;location;lat;lon;timestamp;temperature;humidity
5394;DHT22;2720;52.396;10.064;2023-01-31T00:00:54;3.20;99.90
5394;DHT22;2720;52.396;10.064;2023-01-31T00:03:22;3.10;99.90
5394;DHT22;2720;52.396;10.064;2023-01-31T00:05:49;3.20;99.90
5394;DHT22;2720;52.396;10.064;2023-01-31T00:08:16;3.10;99.90
5394;DHT22;2720;52.396;10.064;2023-01-31T00:10:43;3.10;99.90
5394;DHT22;2720;52.396;10.064;2023-01-31T00:13:10;3.10;99.90
5394;DHT22;2720;52.396;10.064;2023-01-31T00:15:37;3.00;99.90
5394;DHT22;2720;52.396;10.064;2023-01-31T00:18:04;3.00;99.90
5394;DHT22;2720;52.396;10.064;2023-01-31T00:20:33;3.00;99.90
5394;DHT22;2720;52.396;10.064;2023-01-31T00:23:00;3.00;99.90
5394;DHT22;2720;52.396;10.064;2023-01-31T00:25:27;3.10;99.90
5394;DHT22;2720;52.396;10.064;2023-01-31T00:27:54;3.00;99.90
5394;DHT22;2720;52.396;10.064;2023-01-31T00:30:21;3.10;99.90
5394;DHT22;2720;52.396;10.064;2023-01-31T00:32:48;3.10;99.90
5394;DHT22;2720;52.396;10.064;2023-01-31T00:35:15;3.10;99.90
5394;DHT22;2720;52.396;10.064;2023-01-31T00:37:44;3.10;99.90
5394;DHT22;2720;52.396;10.064;2023-01-31T00:40:11;3.10;99.90
5394;DHT22;2720;52.396;10.064;2023-01-31T00:42:38;3.10;99.90
5394;DHT22;2720;52.396;10.064;2023-01-31T00:45:06;3.10;99.90
5394;DHT22;2720;52.396;10.064;2023-01-31T00:47:33;3.10;99.90
5394;DHT22;2720;52.396;10.064;2023-01-31T00:50:00;3.30;99.90
5394;DHT22;2720;52.396;10.064;2023-01-31T00:52:27;3.30;99.90
5394;DHT22;2720;52.396;10.064;2023-01-31T00:54:56;3.40;99.90
5394;DHT22;2720;52.396;10.064;2023-01-31T00:57:23;3.60;99.90
5394;DHT22;2720;52.396;10.064;2023-01-31T00:59:50;3.60;99.90
5394;DHT22;2720;52.396;10.064;2023-01-31T01:02:17;3.60;99.90
5394;DHT22;2720;52.396;10.064;2023-01-31T01:04:43;3.70;99.90
5394;DHT22;2720;52.396;10.064;2023-01-31T01:07:10;3.70;99.90
5394;DHT22;2720;52.396;10.064;2023-01-31T01:09:37;3.90;99.90
5394;DHT22;2720;52.396;10.064;2023-01-31T01:12:06;3.80;99.90
5394;DHT22;2720;52.396;10.064;2023-01-31T01:17:01;3.70;99.90
5394;DHT22;2720;52.396;10.064;2023-01-31T01:24:23;3.40;99.90
5394;DHT22;2720;52.396;10.064;2023-01-31T01:26:50;3.60;99.90
5394;DHT22;2720;52.396;10.064;2023-01-31T01:29:18;3.60;99.90
5394;DHT22;2720;52.396;10.064;2023-01-31T01:31:45;3.60;99.90
5394;DHT22;2720;52.396;10.064;2023-01-31T01:34:14;3.70;99.90
5394;DHT22;2720;52.396;10.064;2023-01-31T01:36:42;3.70;99.90
5394;DHT22;2720;52.396;10.064;2023-01-31T01:39:10;3.90;99.90
5394;DHT22;2720;52.396;10.064;2023-01-31T01:41:38;3.90;99.90
5394;DHT22;2720;52.396;10.064;2023-01-31T01:44:44;3.60;99.90
5394;DHT22;2720;52.396;10.064;2023-01-31T01:47:17;4.00;99.90
5394;DHT22;2720;52.396;10.064;2023-01-31T01:49:50;3.90;99.90
5394;DHT22;2720;52.396;10.064;2023-01-31T01:54:49;3.90;99.90
5394;DHT22;2720;52.396;10.064;2023-01-31T01:59:51;4.00;99.90
5394;DHT22;2720;52.396;10.064;2023-01-31T02:02:20;4.00;99.90
5394;DHT22;2720;52.396;10.064;2023-01-31T02:04:49;4.10;99.90
5394;DHT22;2720;52.396;10.064;2023-01-31T02:07:16;3.90;99.90
5394;DHT22;2720;52.396;10.064;2023-01-31T02:09:47;4.00;99.90
5394;DHT22;2720;52.396;10.064;2023-01-31T02:12:16;3.90;99.90
5394;DHT22;2720;52.396;10.064;2023-01-31T02:14:44;3.80;99.90
5394;DHT22;2720;52.396;10.064;2023-01-31T02:17:15;3.60;99.90
5394;DHT22;2720;52.396;10.064;2023-01-31T02:25:11;3.20;99.90
5394;DHT22;2720;52.396;10.064;2023-01-31T02:31:03;3.00;99.90
5394;DHT22;2720;52.396;10.064;2023-01-31T02:33:42;3.80;99.90
5394;DHT22;2720;52.396;10.064;2023-01-31T02:38:53;3.10;99.90
5394;DHT22;2720;52.396;10.064;2023-01-31T02:43:55;2.70;99.90
5394;DHT22;2720;52.396;10.064;2023-01-31T02:46:45;3.10;99.90
5394;DHT22;2720;52.396;10.064;2023-01-31T02:49:21;3.20;99.90
5394;DHT22;2720;52.396;10.064;2023-01-31T02:52:05;3.40;99.90
5394;DHT22;2720;52.396;10.064;2023-01-31T02:54:57;3.50;99.90
5394;DHT22;2720;52.396;10.064;2023-01-31T03:00:12;3.40;99.90
5394;DHT22;2720;52.396;10.064;2023-01-31T03:02:39;3.70;99.90
5394;DHT22;2720;52.396;10.064;2023-01-31T03:05:13;3.80;99.90
5394;DHT22;2720;52.396;10.064;2023-01-31T03:07:42;3.80;99.90
5394;DHT22;2720;52.396;10.064;2023-01-31T03:10:18;3.90;99.90
5394;DHT22;2720;52.396;10.064;2023-01-31T03:13:01;4.00;99.90
5394;DHT22;2720;52.396;10.064;2023-01-31T03:15:43;3.60;99.90
5394;DHT22;2720;52.396;10.064;2023-01-31T03:18:32;3.80;99.90
5394;DHT22;2720;52.396;10.064;2023-01-31T03:21:07;3.90;99.90
5394;DHT22;2720;52.396;10.064;2023-01-31T03:23:38;3.70;99.90
5394;DHT22;2720;52.396;10.064;2023-01-31T03:26:06;3.70;99.90
5394;DHT22;2720;52.396;10.064;2023-01-31T03:28:34;3.80;99.90
5394;DHT22;2720;52.396;10.064;2023-01-31T03:31:09;3.80;99.90
5394;DHT22;2720;52.396;10.064;2023-01-31T03:33:39;3.70;99.90
5394;DHT22;2720;52.396;10.064;2023-01-31T03:36:16;3.70;99.90
5394;DHT22;2720;52.396;10.064;2023-01-31T03:38:50;3.60;99.90
5394;DHT22;2720;52.396;10.064;2023-01-31T03:41:26;3.40;99.90
5394;DHT22;2720;52.396;10.064;2023-01-31T03:44:00;3.30;99.90
5394;DHT22;2720;52.396;10.064;2023-01-31T03:46:32;3.20;99.90
5394;DHT22;2720;52.396;10.064;2023-01-31T03:49:03;3.30;99.90
5394;DHT22;2720;52.396;10.064;2023-01-31T03:51:36;3.70;99.90
5394;DHT22;2720;52.396;10.064;2023-01-31T03:54:06;3.30;99.90
5394;DHT22;2720;52.396;10.064;2023-01-31T03:56:39;3.20;99.90
5394;DHT22;2720;52.396;10.064;2023-01-31T03:59:11;3.20;99.90
5394;DHT22;2720;52.396;10.064;2023-01-31T04:01:42;3.10;99.90
5394;DHT22;2720;52.396;10.064;2023-01-31T04:04:17;2.90;99.90
5394;DHT22;2720;52.396;10.064;2023-01-31T04:11:49;2.70;99.90
5394;DHT22;2720;52.396;10.064;2023-01-31T04:14:16;3.20;99.90
5394;DHT22;2720;52.396;10.064;2023-01-31T04:16:44;3.00;99.90
5394;DHT22;2720;52.396;10.064;2023-01-31T04:19:11;3.10;99.90
5394;DHT22;2720;52.396;10.064;2023-01-31T04:21:37;2.90;99.90
5394;DHT22;2720;52.396;10.064;2023-01-31T04:24:06;3.00;99.90
5394;DHT22;2720;52.396;10.064;2023-01-31T04:26:34;2.80;99.90
5394;DHT22;2720;52.396;10.064;2023-01-31T04:29:01;2.80;99.90
5394;DHT22;2720;52.396;10.064;2023-01-31T04:31:28;2.90;99.90
5394;DHT22;2720;52.396;10.064;2023-01-31T04:33:56;2.90;99.90
5394;DHT22;2720;52.396;10.064;2023-01-31T04:36:23;2.90;99.90
5394;DHT22;2720;52.396;10.064;2023-01-31T04:38:50;2.80;99.90
5394;DHT22;2720;52.396;10.064;2023-01-31T04:41:18;2.80;99.90
5394;DHT22;2720;52.396;10.064;2023-01-31T04:43:45;2.70;99.90
5394;DHT22;2720;52.396;10.064;2023-01-31T04:46:12;2.70;99.90
5394;DHT22;2720;52.396;10.064;2023-01-31T04:48:39;2.70;99.90
5394;DHT22;2720;52.396;10.064;2023-01-31T04:51:07;2.70;99.90
5394;DHT22;2720;52.396;10.064;2023-01-31T04:53:34;2.70;99.90
5394;DHT22;2720;52.396;10.064;2023-01-31T04:56:01;2.70;99.90
5394;DHT22;2720;52.396;10.064;2023-01-31T05:00:56;2.60;99.90
5394;DHT22;2720;52.396;10.064;2023-01-31T05:03:23;2.70;99.90
5394;DHT22;2720;52.396;10.064;2023-01-31T05:05:50;2.30;99.90
5394;DHT22;2720;52.396;10.064;2023-01-31T05:08:17;2.90;99.90
5394;DHT22;2720;52.396;10.064;2023-01-31T05:10:44;2.90;99.90
5394;DHT22;2720;52.396;10.064;2023-01-31T05:13:11;2.90;99.90
5394;DHT22;2720;52.396;10.064;2023-01-31T05:15:40;3.00;99.90
5394;DHT22;2720;52.396;10.064;2023-01-31T05:18:07;3.00;99.90
5394;DHT22;2720;52.396;10.064;2023-01-31T05:23:05;3.00;99.90
5394;DHT22;2720;52.396;10.064;2023-01-31T05:25:33;3.00;99.90
5394;DHT22;2720;52.396;10.064;2023-01-31T05:32:57;2.90;99.90
5394;DHT22;2720;52.396;10.064;2023-01-31T05:35:24;3.00;99.90
5394;DHT22;2720;52.396;10.064;2023-01-31T05:37:52;3.00;99.90
5394;DHT22;2720;52.396;10.064;2023-01-31T05:40:19;3.10;99.90
5394;DHT22;2720;52.396;10.064;2023-01-31T05:45:16;3.20;99.90
5394;DHT22;2720;52.396;10.064;2023-01-31T05:47:45;3.30;99.90
5394;DHT22;2720;52.396;10.064;2023-01-31T05:52:41;3.30;99.90
5394;DHT22;2720;52.396;10.064;2023-01-31T05:57:35;3.30;99.90
5394;DHT22;2720;52.396;10.064;2023-01-31T06:00:03;3.40;99.90
5394;DHT22;2720;52.396;10.064;2023-01-31T06:02:30;3.50;99.90
5394;DHT22;2720;52.396;10.064;2023-01-31T06:04:57;3.50;99.90
5394;DHT22;2720;52.396;10.064;2023-01-31T06:07:26;3.40;99.90
5394;DHT22;2720;52.396;10.064;2023-01-31T06:09:53;3.40;99.90
5394;DHT22;2720;52.396;10.064;2023-01-31T06:12:20;3.40;99.90
5394;DHT22;2720;52.396;10.064;2023-01-31T06:14:47;3.40;99.90
5394;DHT22;2720;52.396;10.064;2023-01-31T06:17:15;3.40;99.90
5394;DHT22;2720;52.396;10.064;2023-01-31T06:19:42;3.40;99.90
5394;DHT22;2720;52.396;10.064;2023-01-31T06:27:05;3.30;99.90
5394;DHT22;2720;52.396;10.064;2023-01-31T06:29:32;3.40;99.90
5394;DHT22;2720;52.396;10.064;2023-01-31T06:49:11;3.50;99.90
5394;DHT22;2720;52.396;10.064;2023-01-31T06:51:39;3.50;99.90
5394;DHT22;2720;52.396;10.064;2023-01-31T06:56:33;3.50;99.90
5394;DHT22;2720;52.396;10.064;2023-01-31T06:59:01;3.70;99.90
5394;DHT22;2720;52.396;10.064;2023-01-31T07:01:28;4.00;99.90
5394;DHT22;2720;52.396;10.064;2023-01-31T07:11:17;3.30;99.90
5394;DHT22;2720;52.396;10.064;2023-01-31T07:16:14;3.90;99.90
5394;DHT22;2720;52.396;10.064;2023-01-31T07:23:36;3.50;99.90
5394;DHT22;2720;52.396;10.064;2023-01-31T07:33:32;3.70;99.90
5394;DHT22;2720;52.396;10.064;2023-01-31T07:36:00;4.10;99.90
5394;DHT22;2720;52.396;10.064;2023-01-31T07:40:58;3.10;99.90
5394;DHT22;2720;52.396;10.064;2023-01-31T07:43:26;4.10;99.90
5394;DHT22;2720;52.396;10.064;2023-01-31T07:45:53;3.90;99.90
5394;DHT22;2720;52.396;10.064;2023-01-31T07:48:20;4.20;99.90
5394;DHT22;2720;52.396;10.064;2023-01-31T07:50:51;2.70;99.90
5394;DHT22;2720;52.396;10.064;2023-01-31T07:58:13;3.90;99.90
5394;DHT22;2720;52.396;10.064;2023-01-31T08:00:40;4.10;99.90
5394;DHT22;2720;52.396;10.064;2023-01-31T08:03:26;4.10;99.90
5394;DHT22;2720;52.396;10.064;2023-01-31T08:06:02;3.60;99.90
5394;DHT22;2720;52.396;10.064;2023-01-31T08:08:30;4.60;99.90
5394;DHT22;2720;52.396;10.064;2023-01-31T08:15:52;4.50;99.90
5394;DHT22;2720;52.396;10.064;2023-01-31T08:18:19;4.40;99.90
5394;DHT22;2720;52.396;10.064;2023-01-31T08:28:10;4.80;99.90
5394;DHT22;2720;52.396;10.064;2023-01-31T08:30:39;5.00;99.90
5394;DHT22;2720;52.396;10.064;2023-01-31T08:33:07;4.90;99.90
5394;DHT22;2720;52.396;10.064;2023-01-31T08:35:34;5.20;99.90
5394;DHT22;2720;52.396;10.064;2023-01-31T08:38:01;5.30;99.90
5394;DHT22;2720;52.396;10.064;2023-01-31T08:47:53;5.80;99.90
5394;DHT22;2720;52.396;10.064;2023-01-31T08:57:48;6.20;99.90
5394;DHT22;2720;52.396;10.064;2023-01-31T09:00:17;6.10;99.90
5394;DHT22;2720;52.396;10.064;2023-01-31T09:02:44;6.10;99.90
5394;DHT22;2720;52.396;10.064;2023-01-31T09:05:12;6.10;99.90
5394;DHT22;2720;52.396;10.064;2023-01-31T09:07:39;6.10;99.90
5394;DHT22;2720;52.396;10.064;2023-01-31T09:12:34;6.10;99.90
5394;DHT22;2720;52.396;10.064;2023-01-31T09:15:03;6.20;99.90
5394;DHT22;2720;52.396;10.064;2023-01-31T09:17:30;6.00;99.90
5394;DHT22;2720;52.396;10.064;2023-01-31T09:19:57;6.20;99.90
5394;DHT22;2720;52.396;10.064;2023-01-31T09:22:24;6.10;99.90
5394;DHT22;2720;52.396;10.064;2023-01-31T09:24:51;6.00;99.90
5394;DHT22;2720;52.396;10.064;2023-01-31T09:27:18;6.00;99.90
5394;DHT22;2720;52.396;10.064;2023-01-31T09:29:45;6.00;99.90
5394;DHT22;2720;52.396;10.064;2023-01-31T09:34:40;5.90;99.90
5394;DHT22;2720;52.396;10.064;2023-01-31T09:37:07;5.90;99.90
5394;DHT22;2720;52.396;10.064;2023-01-31T09:39:34;5.90;99.90
5394;DHT22;2720;52.396;10.064;2023-01-31T09:42:08;5.80;99.90
5394;DHT22;2720;52.396;10.064;2023-01-31T09:44:41;5.70;99.90
5394;DHT22;2720;52.396;10.064;2023-01-31T09:49:45;5.60;99.90
5394;DHT22;2720;52.396;10.064;2023-01-31T09:54:41;5.50;99.90
5394;DHT22;2720;52.396;10.064;2023-01-31T09:57:19;6.00;99.90
5394;DHT22;2720;52.396;10.064;2023-01-31T09:59:56;5.30;99.90
5394;DHT22;2720;52.396;10.064;2023-01-31T10:05:29;5.20;99.90
5394;DHT22;2720;52.396;10.064;2023-01-31T10:08:04;5.70;99.90
5394;DHT22;2720;52.396;10.064;2023-01-31T10:10:37;5.10;99.90
5394;DHT22;2720;52.396;10.064;2023-01-31T10:13:10;5.50;99.90
5394;DHT22;2720;52.396;10.064;2023-01-31T10:15:42;5.00;99.90
5394;DHT22;2720;52.396;10.064;2023-01-31T10:18:13;4.60;99.90
5394;DHT22;2720;52.396;10.064;2023-01-31T10:20:47;5.00;99.90
5394;DHT22;2720;52.396;10.064;2023-01-31T10:23:20;5.00;99.90
5394;DHT22;2720;52.396;10.064;2023-01-31T10:25:51;5.20;99.90
5394;DHT22;2720;52.396;10.064;2023-01-31T10:28:22;4.90;99.90
5394;DHT22;2720;52.396;10.064;2023-01-31T10:30:55;5.10;99.90
5394;DHT22;2720;52.396;10.064;2023-01-31T10:33:28;5.40;99.90
5394;DHT22;2720;52.396;10.064;2023-01-31T10:36:02;5.20;99.90
5394;DHT22;2720;52.396;10.064;2023-01-31T10:38:32;5.20;99.90
5394;DHT22;2720;52.396;10.064;2023-01-31T10:41:16;5.30;99.90
5394;DHT22;2720;52.396;10.064;2023-01-31T10:43:48;5.40;99.90
5394;DHT22;2720;52.396;10.064;2023-01-31T10:46:17;5.10;99.90
5394;DHT22;2720;52.396;10.064;2023-01-31T10:48:46;5.20;99.90
5394;DHT22;2720;52.396;10.064;2023-01-31T10:51:24;5.20;99.90
5394;DHT22;2720;52.396;10.064;2023-01-31T10:54:06;5.10;99.90
5394;DHT22;2720;52.396;10.064;2023-01-31T10:56:40;5.20;99.90
5394;DHT22;2720;52.396;10.064;2023-01-31T10:59:12;5.10;99.90
5394;DHT22;2720;52.396;10.064;2023-01-31T11:01:41;5.10;99.90
5394;DHT22;2720;52.396;10.064;2023-01-31T11:04:22;5.10;99.90
5394;DHT22;2720;52.396;10.064;2023-01-31T11:06:52;5.10;99.90
5394;DHT22;2720;52.396;10.064;2023-01-31T11:09:20;5.20;99.90
5394;DHT22;2720;52.396;10.064;2023-01-31T11:14:20;5.20;99.90
5394;DHT22;2720;52.396;10.064;2023-01-31T11:16:47;5.30;99.90
5394;DHT22;2720;52.396;10.064;2023-01-31T11:19:21;5.30;99.90
5394;DHT22;2720;52.396;10.064;2023-01-31T11:24:21;5.40;99.90
5394;DHT22;2720;52.396;10.064;2023-01-31T11:26:51;5.50;99.90
5394;DHT22;2720;52.396;10.064;2023-01-31T11:31:49;6.10;99.90
5394;DHT22;2720;52.396;10.064;2023-01-31T11:34:20;5.50;99.90
5394;DHT22;2720;52.396;10.064;2023-01-31T11:36:47;5.50;99.90
5394;DHT22;2720;52.396;10.064;2023-01-31T11:39:35;5.50;99.90
5394;DHT22;2720;52.396;10.064;2023-01-31T11:42:10;5.50;99.90
5394;DHT22;2720;52.396;10.064;2023-01-31T11:44:53;5.60;99.90
5394;DHT22;2720;52.396;10.064;2023-01-31T11:47:24;5.70;99.90
5394;DHT22;2720;52.396;10.064;2023-01-31T11:49:52;5.60;99.90
5394;DHT22;2720;52.396;10.064;2023-01-31T11:52:21;5.60;99.90
5394;DHT22;2720;52.396;10.064;2023-01-31T11:54:56;5.60;99.90
5394;DHT22;2720;52.396;10.064;2023-01-31T11:57:27;5.60;99.90
5394;DHT22;2720;52.396;10.064;2023-01-31T12:02:33;5.50;99.90
5394;DHT22;2720;52.396;10.064;2023-01-31T12:05:08;5.60;99.90
5394;DHT22;2720;52.396;10.064;2023-01-31T12:07:46;5.60;99.90
5394;DHT22;2720;52.396;10.064;2023-01-31T12:10:31;5.70;99.90
5394;DHT22;2720;52.396;10.064;2023-01-31T12:13:00;5.70;99.90
5394;DHT22;2720;52.396;10.064;2023-01-31T12:15:28;5.60;99.90
5394;DHT22;2720;52.396;10.064;2023-01-31T12:17:57;5.60;99.90
5394;DHT22;2720;52.396;10.064;2023-01-31T12:20:38;5.60;99.90
5394;DHT22;2720;52.396;10.064;2023-01-31T12:23:26;5.60;99.90
5394;DHT22;2720;52.396;10.064;2023-01-31T12:26:06;5.70;99.90
5394;DHT22;2720;52.396;10.064;2023-01-31T12:28:45;5.70;99.90
5394;DHT22;2720;52.396;10.064;2023-01-31T12:31:32;5.60;99.90
5394;DHT22;2720;52.396;10.064;2023-01-31T12:34:24;5.70;99.90
5394;DHT22;2720;52.396;10.064;2023-01-31T12:37:05;5.70;99.90
5394;DHT22;2720;52.396;10.064;2023-01-31T12:39:50;5.70;99.90
5394;DHT22;2720;52.396;10.064;2023-01-31T12:42:33;5.60;99.90
5394;DHT22;2720;52.396;10.064;2023-01-31T12:45:16;5.70;99.90
5394;DHT22;2720;52.396;10.064;2023-01-31T12:53:25;5.90;99.90
5394;DHT22;2720;52.396;10.064;2023-01-31T12:56:03;5.70;99.90
5394;DHT22;2720;52.396;10.064;2023-01-31T12:58:47;5.70;99.90
5394;DHT22;2720;52.396;10.064;2023-01-31T13:01:21;5.70;99.90
5394;DHT22;2720;52.396;10.064;2023-01-31T13:03:58;5.60;99.90
5394;DHT22;2720;52.396;10.064;2023-01-31T13:06:29;5.60;99.90
5394;DHT22;2720;52.396;10.064;2023-01-31T13:09:01;5.70;99.90
5394;DHT22;2720;52.396;10.064;2023-01-31T13:11:33;5.70;99.90
5394;DHT22;2720;52.396;10.064;2023-01-31T13:16:34;5.50;99.90
5394;DHT22;2720;52.396;10.064;2023-01-31T13:19:05;5.50;99.90
5394;DHT22;2720;52.396;10.064;2023-01-31T13:21:39;5.50;99.90
5394;DHT22;2720;52.396;10.064;2023-01-31T13:24:11;5.50;99.90
5394;DHT22;2720;52.396;10.064;2023-01-31T13:26:42;5.40;99.90
5394;DHT22;2720;52.396;10.064;2023-01-31T13:29:17;5.30;99.90
5394;DHT22;2720;52.396;10.064;2023-01-31T13:34:17;5.30;99.90
5394;DHT22;2720;52.396;10.064;2023-01-31T13:36:49;5.50;99.90
5394;DHT22;2720;52.396;10.064;2023-01-31T13:39:20;5.20;99.90
5394;DHT22;2720;52.396;10.064;2023-01-31T13:41:48;5.30;99.90
5394;DHT22;2720;52.396;10.064;2023-01-31T13:44:16;5.40;99.90
5394;DHT22;2720;52.396;10.064;2023-01-31T13:46:48;5.40;99.90
5394;DHT22;2720;52.396;10.064;2023-01-31T13:49:21;5.40;99.90
5394;DHT22;2720;52.396;10.064;2023-01-31T13:51:51;5.40;99.90
5394;DHT22;2720;52.396;10.064;2023-01-31T13:54:23;5.20;99.90
5394;DHT22;2720;52.396;10.064;2023-01-31T13:56:53;5.40;99.90
5394;DHT22;2720;52.396;10.064;2023-01-31T13:59:24;5.40;99.90
5394;DHT22;2720;52.396;10.064;2023-01-31T14:01:53;5.50;99.90
5394;DHT22;2720;52.396;10.064;2023-01-31T14:04:27;5.50;99.90
5394;DHT22;2720;52.396;10.064;2023-01-31T14:12:32;5.50;99.90
5394;DHT22;2720;52.396;10.064;2023-01-31T14:15:01;6.10;99.90
5394;DHT22;2720;52.396;10.064;2023-01-31T14:17:57;5.70;99.90
5394;DHT22;2720;52.396;10.064;2023-01-31T14:20:26;5.70;99.90
5394;DHT22;2720;52.396;10.064;2023-01-31T14:26:00;5.60;99.90
5394;DHT22;2720;52.396;10.064;2023-01-31T14:28:27;5.60;99.90
5394;DHT22;2720;52.396;10.064;2023-01-31T14:30:55;5.60;99.90
5394;DHT22;2720;52.396;10.064;2023-01-31T14:33:25;5.70;99.90
5394;DHT22;2720;52.396;10.064;2023-01-31T14:36:25;5.70;99.90
5394;DHT22;2720;52.396;10.064;2023-01-31T14:47:03;5.70;99.90
5394;DHT22;2720;52.396;10.064;2023-01-31T14:49:55;5.80;99.90
5394;DHT22;2720;52.396;10.064;2023-01-31T14:52:39;5.80;99.90
5394;DHT22;2720;52.396;10.064;2023-01-31T14:55:35;5.80;99.90
5394;DHT22;2720;52.396;10.064;2023-01-31T14:58:05;5.90;99.90
5394;DHT22;2720;52.396;10.064;2023-01-31T15:00:47;6.00;99.90
5394;DHT22;2720;52.396;10.064;2023-01-31T15:03:18;6.00;99.90
5394;DHT22;2720;52.396;10.064;2023-01-31T15:05:49;6.10;99.90
5394;DHT22;2720;52.396;10.064;2023-01-31T15:08:41;6.00;99.90
5394;DHT22;2720;52.396;10.064;2023-01-31T15:13:56;6.00;99.90
5394;DHT22;2720;52.396;10.064;2023-01-31T15:16:25;6.00;99.90
5394;DHT22;2720;52.396;10.064;2023-01-31T15:18:58;6.10;99.90
5394;DHT22;2720;52.396;10.064;2023-01-31T15:21:29;6.10;99.90
5394;DHT22;2720;52.396;10.064;2023-01-31T15:23:57;6.10;99.90
5394;DHT22;2720;52.396;10.064;2023-01-31T15:26:28;6.20;99.90
5394;DHT22;2720;52.396;10.064;2023-01-31T15:28:57;6.20;99.90
5394;DHT22;2720;52.396;10.064;2023-01-31T15:31:31;6.30;99.90
5394;DHT22;2720;52.396;10.064;2023-01-31T15:34:04;6.30;99.90
5394;DHT22;2720;52.396;10.064;2023-01-31T15:36:34;6.30;99.90
5394;DHT22;2720;52.396;10.064;2023-01-31T15:39:05;6.30;99.90
5394;DHT22;2720;52.396;10.064;2023-01-31T15:41:44;6.30;99.90
5394;DHT22;2720;52.396;10.064;2023-01-31T15:44:15;6.30;99.90
5394;DHT22;2720;52.396;10.064;2023-01-31T15:46:43;6.30;99.90
5394;DHT22;2720;52.396;10.064;2023-01-31T15:49:23;6.40;99.90
5394;DHT22;2720;52.396;10.064;2023-01-31T15:52:18;6.30;99.90
5394;DHT22;2720;52.396;10.064;2023-01-31T15:54:55;6.40;99.90
5394;DHT22;2720;52.396;10.064;2023-01-31T15:57:25;5.70;99.90
5394;DHT22;2720;52.396;10.064;2023-01-31T15:59:54;6.40;99.90
5394;DHT22;2720;52.396;10.064;2023-01-31T16:02:26;6.40;99.90
5394;DHT22;2720;52.396;10.064;2023-01-31T16:04:55;6.30;99.90
5394;DHT22;2720;52.396;10.064;2023-01-31T16:07:24;6.40;99.90
5394;DHT22;2720;52.396;10.064;2023-01-31T16:09:54;6.40;99.90
5394;DHT22;2720;52.396;10.064;2023-01-31T16:12:23;6.40;99.90
5394;DHT22;2720;52.396;10.064;2023-01-31T16:14:50;6.50;99.90
5394;DHT22;2720;52.396;10.064;2023-01-31T16:17:24;6.50;99.90
5394;DHT22;2720;52.396;10.064;2023-01-31T16:19:51;6.40;99.90
5394;DHT22;2720;52.396;10.064;2023-01-31T16:22:28;6.40;99.90
5394;DHT22;2720;52.396;10.064;2023-01-31T16:24:57;6.30;99.90
5394;DHT22;2720;52.396;10.064;2023-01-31T16:27:26;6.20;99.90
5394;DHT22;2720;52.396;10.064;2023-01-31T16:29:56;6.20;99.90
5394;DHT22;2720;52.396;10.064;2023-01-31T16:32:25;6.20;99.90
5394;DHT22;2720;52.396;10.064;2023-01-31T16:34:55;6.20;99.90
5394;DHT22;2720;52.396;10.064;2023-01-31T16:37:34;6.20;99.90
5394;DHT22;2720;52.396;10.064;2023-01-31T16:40:06;6.20;99.90
5394;DHT22;2720;52.396;10.064;2023-01-31T16:42:34;6.20;99.90
5394;DHT22;2720;52.396;10.064;2023-01-31T16:45:27;6.20;99.90
5394;DHT22;2720;52.396;10.064;2023-01-31T16:47:54;6.30;99.90
5394;DHT22;2720;52.396;10.064;2023-01-31T16:50:29;6.20;99.90
5394;DHT22;2720;52.396;10.064;2023-01-31T16:53:13;6.20;99.90
5394;DHT22;2720;52.396;10.064;2023-01-31T16:55:41;6.10;99.90
5394;DHT22;2720;52.396;10.064;2023-01-31T17:00:37;6.00;99.90
5394;DHT22;2720;52.396;10.064;2023-01-31T17:03:13;5.30;99.90
5394;DHT22;2720;52.396;10.064;2023-01-31T17:05:44;6.00;99.90
5394;DHT22;2720;52.396;10.064;2023-01-31T17:08:15;6.00;99.90
5394;DHT22;2720;52.396;10.064;2023-01-31T17:10:44;5.90;99.90
5394;DHT22;2720;52.396;10.064;2023-01-31T17:13:17;5.80;99.90
5394;DHT22;2720;52.396;10.064;2023-01-31T17:15:47;5.70;99.90
5394;DHT22;2720;52.396;10.064;2023-01-31T17:18:14;5.70;99.90
5394;DHT22;2720;52.396;10.064;2023-01-31T17:20:43;5.80;99.90
5394;DHT22;2720;52.396;10.064;2023-01-31T17:23:11;5.80;99.90
5394;DHT22;2720;52.396;10.064;2023-01-31T17:25:39;5.90;99.90
5394;DHT22;2720;52.396;10.064;2023-01-31T17:28:08;5.90;99.90
5394;DHT22;2720;52.396;10.064;2023-01-31T17:30:37;5.90;99.90
5394;DHT22;2720;52.396;10.064;2023-01-31T17:33:09;5.90;99.90
5394;DHT22;2720;52.396;10.064;2023-01-31T17:35:39;6.00;99.90
5394;DHT22;2720;52.396;10.064;2023-01-31T17:38:06;5.90;99.90
5394;DHT22;2720;52.396;10.064;2023-01-31T17:40:33;5.80;99.90
5394;DHT22;2720;52.396;10.064;2023-01-31T17:43:02;5.80;99.90
5394;DHT22;2720;52.396;10.064;2023-01-31T17:45:30;5.70;99.90
5394;DHT22;2720;52.396;10.064;2023-01-31T17:47:58;5.70;99.90
5394;DHT22;2720;52.396;10.064;2023-01-31T17:50:27;5.80;99.90
5394;DHT22;2720;52.396;10.064;2023-01-31T17:52:55;6.00;99.90
5394;DHT22;2720;52.396;10.064;2023-01-31T17:55:22;5.90;99.90
5394;DHT22;2720;52.396;10.064;2023-01-31T17:57:50;5.90;99.90
5394;DHT22;2720;52.396;10.064;2023-01-31T18:00:19;5.80;99.90
5394;DHT22;2720;52.396;10.064;2023-01-31T18:02:46;5.70;99.90
5394;DHT22;2720;52.396;10.064;2023-01-31T18:05:15;5.70;99.90
5394;DHT22;2720;52.396;10.064;2023-01-31T18:07:47;5.70;99.90
5394;DHT22;2720;52.396;10.064;2023-01-31T18:10:15;5.80;99.90
5394;DHT22;2720;52.396;10.064;2023-01-31T18:12:42;5.80;99.90
5394;DHT22;2720;52.396;10.064;2023-01-31T18:15:10;5.80;99.90
5394;DHT22;2720;52.396;10.064;2023-01-31T18:17:37;5.90;99.90
5394;DHT22;2720;52.396;10.064;2023-01-31T18:20:05;6.00;99.90
5394;DHT22;2720;52.396;10.064;2023-01-31T18:22:33;6.10;99.90
5394;DHT22;2720;52.396;10.064;2023-01-31T18:25:03;6.20;99.90
5394;DHT22;2720;52.396;10.064;2023-01-31T18:27:30;6.20;99.90
5394;DHT22;2720;52.396;10.064;2023-01-31T18:29:57;6.30;99.90
5394;DHT22;2720;52.396;10.064;2023-01-31T18:32:24;6.40;99.90
5394;DHT22;2720;52.396;10.064;2023-01-31T18:34:51;6.30;99.90
5394;DHT22;2720;52.396;10.064;2023-01-31T18:37:18;6.30;99.90
5394;DHT22;2720;52.396;10.064;2023-01-31T18:39:47;6.30;99.90
5394;DHT22;2720;52.396;10.064;2023-01-31T18:42:16;6.30;99.90
5394;DHT22;2720;52.396;10.064;2023-01-31T18:44:43;6.40;99.90
5394;DHT22;2720;52.396;10.064;2023-01-31T18:47:12;6.40;99.90
5394;DHT22;2720;52.396;10.064;2023-01-31T18:49:39;6.50;99.90
5394;DHT22;2720;52.396;10.064;2023-01-31T18:52:06;6.50;99.90
5394;DHT22;2720;52.396;10.064;2023-01-31T18:54:34;6.50;99.90
5394;DHT22;2720;52.396;10.064;2023-01-31T18:57:02;6.50;99.90
5394;DHT22;2720;52.396;10.064;2023-01-31T18:59:32;6.40;99.90
5394;DHT22;2720;52.396;10.064;2023-01-31T19:01:59;6.40;99.90
5394;DHT22;2720;52.396;10.064;2023-01-31T19:04:26;6.40;99.90
5394;DHT22;2720;52.396;10.064;2023-01-31T19:06:54;6.30;99.90
5394;DHT22;2720;52.396;10.064;2023-01-31T19:09:22;6.30;99.90
5394;DHT22;2720;52.396;10.064;2023-01-31T19:11:49;6.30;99.90
5394;DHT22;2720;52.396;10.064;2023-01-31T19:14:16;6.30;99.90
5394;DHT22;2720;52.396;10.064;2023-01-31T19:16:45;6.30;99.90
5394;DHT22;2720;52.396;10.064;2023-01-31T19:19:13;6.40;99.90
5394;DHT22;2720;52.396;10.064;2023-01-31T19:21:42;6.30;99.90
5394;DHT22;2720;52.396;10.064;2023-01-31T19:24:11;6.30;99.90
5394;DHT22;2720;52.396;10.064;2023-01-31T19:26:38;6.30;99.90
5394;DHT22;2720;52.396;10.064;2023-01-31T19:29:05;6.30;99.90
5394;DHT22;2720;52.396;10.064;2023-01-31T19:31:33;6.30;99.90
5394;DHT22;2720;52.396;10.064;2023-01-31T19:34:03;6.20;99.90